sensor_id;sensor_type;location;lat;lon;timestamp;pressure;altitude;pressure_sealevel;temperature;humidity
85507;BME280;75915;41.988;21.460;2024-01-30T00:01:58;100727.53;;;4.94;51.94
85507;BME280;75915;41.988;21.460;2024-01-30T00:04:24;100735.22;;;4.89;51.95
85507;BME280;75915;41.988;21.460;2024-01-30T00:06:50;100742.41;;;4.80;51.85
85507;BME280;75915;41.988;21.460;2024-01-30T00:09:20;100743.13;;;4.74;51.96
85507;BME280;75915;41.988;21.460;2024-01-30T00:11:46;100735.84;;;4.68;51.70
85507;BME280;75915;41.988;21.460;2024-01-30T00:14:11;100741.03;;;4.61;52.16
85507;BME280;75915;41.988;21.460;2024-01-30T00:16:37;100744.84;;;4.59;52.07
85507;BME280;75915;41.988;21.460;2024-01-30T00:19:03;100750.16;;;4.59;51.92
85507;BME280;75915;41.988;21.460;2024-01-30T00:21:29;100751.03;;;4.51;52.28
85507;BME280;75915;41.988;21.460;2024-01-30T00:23:54;100746.91;;;4.48;52.28
85507;BME280;75915;41.988;21.460;2024-01-30T00:26:20;100752.72;;;4.44;52.86
85507;BME280;75915;41.988;21.460;2024-01-30T00:28:45;100743.81;;;4.37;53.07
85507;BME280;75915;41.988;21.460;2024-01-30T00:31:11;100742.50;;;4.33;53.46
85507;BME280;75915;41.988;21.460;2024-01-30T00:33:41;100756.25;;;4.36;53.57
85507;BME280;75915;41.988;21.460;2024-01-30T00:36:08;100751.59;;;4.38;53.42
85507;BME280;75915;41.988;21.460;2024-01-30T00:38:34;100752.47;;;4.31;53.55
85507;BME280;75915;41.988;21.460;2024-01-30T00:41:00;100751.97;;;4.27;53.78
85507;BME280;75915;41.988;21.460;2024-01-30T00:43:27;100752.31;;;4.24;53.81
85507;BME280;75915;41.988;21.460;2024-01-30T00:45:53;100755.44;;;4.27;54.05
85507;BME280;75915;41.988;21.460;2024-01-30T00:48:19;100749.97;;;4.29;53.83
85507;BME280;75915;41.988;21.460;2024-01-30T00:50:48;100760.59;;;4.29;53.85
85507;BME280;75915;41.988;21.460;2024-01-30T00:53:13;100757.47;;;4.25;53.82
85507;BME280;75915;41.988;21.460;2024-01-30T00:55:39;100765.25;;;4.27;53.61
85507;BME280;75915;41.988;21.460;2024-01-30T00:58:04;100756.97;;;4.22;54.11
85507;BME280;75915;41.988;21.460;2024-01-30T01:00:32;100755.66;;;4.18;53.57
85507;BME280;75915;41.988;21.460;2024-01-30T01:02:58;100759.16;;;4.10;54.02
85507;BME280;75915;41.988;21.460;2024-01-30T01:05:35;100757.22;;;4.04;53.92
85507;BME280;75915;41.988;21.460;2024-01-30T01:08:00;100753.22;;;4.00;54.22
85507;BME280;75915;41.988;21.460;2024-01-30T01:10:26;100764.66;;;4.09;54.18
85507;BME280;75915;41.988;21.460;2024-01-30T01:12:52;100762.69;;;4.02;54.32
85507;BME280;75915;41.988;21.460;2024-01-30T01:15:18;100759.88;;;3.96;54.33
85507;BME280;75915;41.988;21.460;2024-01-30T01:17:43;100747.78;;;3.93;54.60
85507;BME280;75915;41.988;21.460;2024-01-30T01:20:09;100755.25;;;3.90;54.77
85507;BME280;75915;41.988;21.460;2024-01-30T01:22:35;100753.47;;;3.82;54.73
85507;BME280;75915;41.988;21.460;2024-01-30T01:25:01;100753.44;;;3.90;54.24
85507;BME280;75915;41.988;21.460;2024-01-30T01:27:27;100744.63;;;3.98;53.81
85507;BME280;75915;41.988;21.460;2024-01-30T01:29:53;100748.09;;;3.98;53.95
85507;BME280;75915;41.988;21.460;2024-01-30T01:32:21;100749.09;;;3.97;53.97
85507;BME280;75915;41.988;21.460;2024-01-30T01:34:46;100747.78;;;3.93;54.03
85507;BME280;75915;41.988;21.460;2024-01-30T01:37:12;100747.16;;;3.83;54.21
85507;BME280;75915;41.988;21.460;2024-01-30T01:39:38;100742.19;;;3.80;54.30
85507;BME280;75915;41.988;21.460;2024-01-30T01:42:03;100744.84;;;3.80;54.16
85507;BME280;75915;41.988;21.460;2024-01-30T01:44:29;100742.69;;;3.75;54.29
85507;BME280;75915;41.988;21.460;2024-01-30T01:46:55;100750.13;;;3.72;54.26
85507;BME280;75915;41.988;21.460;2024-01-30T01:49:24;100738.25;;;3.68;54.42
85507;BME280;75915;41.988;21.460;2024-01-30T01:51:51;100739.91;;;3.60;54.82
85507;BME280;75915;41.988;21.460;2024-01-30T01:54:18;100741.91;;;3.58;54.82
85507;BME280;75915;41.988;21.460;2024-01-30T01:56:45;100746.06;;;3.53;54.60
85507;BME280;75915;41.988;21.460;2024-01-30T01:59:10;100749.19;;;3.48;55.00
85507;BME280;75915;41.988;21.460;2024-01-30T02:01:36;100750.19;;;3.55;54.43
85507;BME280;75915;41.988;21.460;2024-01-30T02:04:02;100746.06;;;3.53;54.70
85507;BME280;75915;41.988;21.460;2024-01-30T02:06:27;100742.88;;;3.57;54.66
85507;BME280;75915;41.988;21.460;2024-01-30T02:08:54;100749.34;;;3.63;54.42
85507;BME280;75915;41.988;21.460;2024-01-30T02:11:23;100740.41;;;3.56;54.57
85507;BME280;75915;41.988;21.460;2024-01-30T02:13:49;100744.03;;;3.55;54.69
85507;BME280;75915;41.988;21.460;2024-01-30T02:16:18;100741.41;;;3.47;55.34
85507;BME280;75915;41.988;21.460;2024-01-30T02:18:48;100754.50;;;3.48;54.97
85507;BME280;75915;41.988;21.460;2024-01-30T02:21:19;100758.97;;;3.15;55.77
85507;BME280;75915;41.988;21.460;2024-01-30T02:23:46;100748.69;;;3.04;56.34
85507;BME280;75915;41.988;21.460;2024-01-30T02:26:12;100756.78;;;2.94;56.71
85507;BME280;75915;41.988;21.460;2024-01-30T02:28:38;100750.66;;;2.93;56.59
85507;BME280;75915;41.988;21.460;2024-01-30T02:31:04;100760.94;;;2.88;56.87
85507;BME280;75915;41.988;21.460;2024-01-30T02:33:29;100759.56;;;2.76;57.28
85507;BME280;75915;41.988;21.460;2024-01-30T02:35:56;100763.38;;;2.73;56.99
85507;BME280;75915;41.988;21.460;2024-01-30T02:38:21;100766.16;;;2.64;57.39
85507;BME280;75915;41.988;21.460;2024-01-30T02:40:48;100756.19;;;2.49;57.33
85507;BME280;75915;41.988;21.460;2024-01-30T02:43:14;100768.56;;;2.41;57.41
85507;BME280;75915;41.988;21.460;2024-01-30T02:45:39;100761.41;;;2.25;57.36
85507;BME280;75915;41.988;21.460;2024-01-30T02:48:05;100763.53;;;2.21;57.46
85507;BME280;75915;41.988;21.460;2024-01-30T02:50:31;100754.41;;;2.16;57.67
85507;BME280;75915;41.988;21.460;2024-01-30T02:52:57;100755.56;;;2.13;57.62
85507;BME280;75915;41.988;21.460;2024-01-30T02:55:23;100760.31;;;2.09;57.62
85507;BME280;75915;41.988;21.460;2024-01-30T02:57:48;100760.66;;;2.06;57.76
85507;BME280;75915;41.988;21.460;2024-01-30T03:00:14;100768.38;;;2.00;57.75
85507;BME280;75915;41.988;21.460;2024-01-30T03:02:40;100773.44;;;1.93;57.85
85507;BME280;75915;41.988;21.460;2024-01-30T03:05:05;100775.69;;;1.80;58.32
85507;BME280;75915;41.988;21.460;2024-01-30T03:07:33;100779.69;;;1.84;58.50
85507;BME280;75915;41.988;21.460;2024-01-30T03:09:59;100772.72;;;1.83;57.85
85507;BME280;75915;41.988;21.460;2024-01-30T03:12:24;100771.56;;;1.77;57.80
85507;BME280;75915;41.988;21.460;2024-01-30T03:14:50;100771.47;;;1.69;58.32
85507;BME280;75915;41.988;21.460;2024-01-30T03:17:15;100768.47;;;1.64;58.19
85507;BME280;75915;41.988;21.460;2024-01-30T03:19:42;100769.16;;;1.66;57.71
85507;BME280;75915;41.988;21.460;2024-01-30T03:22:07;100762.41;;;1.71;57.71
85507;BME280;75915;41.988;21.460;2024-01-30T03:24:33;100762.81;;;1.77;57.63
85507;BME280;75915;41.988;21.460;2024-01-30T03:26:59;100761.13;;;1.76;57.55
85507;BME280;75915;41.988;21.460;2024-01-30T03:29:24;100763.09;;;1.74;57.72
85507;BME280;75915;41.988;21.460;2024-01-30T03:31:50;100758.47;;;1.76;56.92
85507;BME280;75915;41.988;21.460;2024-01-30T03:34:16;100761.44;;;1.73;56.71
85507;BME280;75915;41.988;21.460;2024-01-30T03:36:41;100764.22;;;1.71;56.88
85507;BME280;75915;41.988;21.460;2024-01-30T03:39:07;100761.09;;;1.67;56.89
85507;BME280;75915;41.988;21.460;2024-01-30T03:41:33;100755.81;;;1.67;56.71
85507;BME280;75915;41.988;21.460;2024-01-30T03:44:01;100765.91;;;1.72;56.75
85507;BME280;75915;41.988;21.460;2024-01-30T03:46:27;100755.16;;;1.74;56.74
85507;BME280;75915;41.988;21.460;2024-01-30T03:48:53;100756.47;;;1.69;56.80
85507;BME280;75915;41.988;21.460;2024-01-30T03:51:21;100763.25;;;1.72;56.33
85507;BME280;75915;41.988;21.460;2024-01-30T03:53:46;100757.31;;;1.70;56.11
85507;BME280;75915;41.988;21.460;2024-01-30T03:56:12;100752.22;;;1.77;56.12
85507;BME280;75915;41.988;21.460;2024-01-30T03:58:40;100761.91;;;1.68;56.01
85507;BME280;75915;41.988;21.460;2024-01-30T04:01:07;100761.09;;;1.67;55.73
85507;BME280;75915;41.988;21.460;2024-01-30T04:03:32;100765.06;;;1.71;55.87
85507;BME280;75915;41.988;21.460;2024-01-30T04:05:58;100763.44;;;1.79;55.75
85507;BME280;75915;41.988;21.460;2024-01-30T04:08:23;100767.22;;;1.76;54.84
85507;BME280;75915;41.988;21.460;2024-01-30T04:10:49;100773.38;;;1.77;54.57
85507;BME280;75915;41.988;21.460;2024-01-30T04:13:14;100766.19;;;1.69;55.03
85507;BME280;75915;41.988;21.460;2024-01-30T04:15:40;100769.00;;;1.67;54.69
85507;BME280;75915;41.988;21.460;2024-01-30T04:18:06;100779.91;;;1.64;54.88
85507;BME280;75915;41.988;21.460;2024-01-30T04:20:32;100778.06;;;1.65;55.06
85507;BME280;75915;41.988;21.460;2024-01-30T04:22:58;100777.44;;;1.71;55.36
85507;BME280;75915;41.988;21.460;2024-01-30T04:25:23;100774.28;;;1.67;55.37
85507;BME280;75915;41.988;21.460;2024-01-30T04:27:49;100777.03;;;1.58;55.90
85507;BME280;75915;41.988;21.460;2024-01-30T04:30:14;100774.94;;;1.43;56.66
85507;BME280;75915;41.988;21.460;2024-01-30T04:32:40;100780.28;;;1.52;56.30
85507;BME280;75915;41.988;21.460;2024-01-30T04:35:06;100779.31;;;1.53;56.62
85507;BME280;75915;41.988;21.460;2024-01-30T04:37:31;100780.28;;;1.52;56.71
85507;BME280;75915;41.988;21.460;2024-01-30T04:39:57;100785.44;;;1.53;56.85
85507;BME280;75915;41.988;21.460;2024-01-30T04:42:22;100782.78;;;1.53;57.16
85507;BME280;75915;41.988;21.460;2024-01-30T04:44:49;100788.22;;;1.52;57.09
85507;BME280;75915;41.988;21.460;2024-01-30T04:47:15;100788.53;;;1.48;57.03
85507;BME280;75915;41.988;21.460;2024-01-30T04:49:41;100789.50;;;1.47;57.26
85507;BME280;75915;41.988;21.460;2024-01-30T04:52:08;100794.56;;;1.23;57.98
85507;BME280;75915;41.988;21.460;2024-01-30T04:54:35;100790.97;;;1.24;57.77
85507;BME280;75915;41.988;21.460;2024-01-30T04:57:01;100791.94;;;1.23;57.73
85507;BME280;75915;41.988;21.460;2024-01-30T04:59:27;100788.91;;;1.18;58.01
85507;BME280;75915;41.988;21.460;2024-01-30T05:01:52;100794.44;;;1.24;57.61
85507;BME280;75915;41.988;21.460;2024-01-30T05:04:18;100798.25;;;1.30;57.84
85507;BME280;75915;41.988;21.460;2024-01-30T05:06:43;100806.81;;;1.24;57.88
85507;BME280;75915;41.988;21.460;2024-01-30T05:09:09;100804.63;;;1.19;58.03
85507;BME280;75915;41.988;21.460;2024-01-30T05:11:40;100803.63;;;1.20;58.01
85507;BME280;75915;41.988;21.460;2024-01-30T05:14:07;100805.06;;;1.15;58.03
85507;BME280;75915;41.988;21.460;2024-01-30T05:16:34;100810.50;;;1.13;57.85
85507;BME280;75915;41.988;21.460;2024-01-30T05:19:00;100802.94;;;1.18;58.03
85507;BME280;75915;41.988;21.460;2024-01-30T05:21:25;100805.13;;;1.23;58.12
85507;BME280;75915;41.988;21.460;2024-01-30T05:23:52;100809.81;;;1.29;57.66
85507;BME280;75915;41.988;21.460;2024-01-30T05:26:17;100804.16;;;1.24;57.47
85507;BME280;75915;41.988;21.460;2024-01-30T05:28:44;100801.16;;;1.19;57.79
85507;BME280;75915;41.988;21.460;2024-01-30T05:31:13;100805.88;;;1.15;57.44
85507;BME280;75915;41.988;21.460;2024-01-30T05:33:39;100803.78;;;1.19;57.53
85507;BME280;75915;41.988;21.460;2024-01-30T05:36:05;100803.47;;;1.22;56.93
85507;BME280;75915;41.988;21.460;2024-01-30T05:38:32;100802.94;;;1.18;56.98
85507;BME280;75915;41.988;21.460;2024-01-30T05:41:08;100804.63;;;1.19;57.38
85507;BME280;75915;41.988;21.460;2024-01-30T05:43:33;100813.66;;;1.17;57.37
85507;BME280;75915;41.988;21.460;2024-01-30T05:46:00;100813.13;;;1.13;57.64
85507;BME280;75915;41.988;21.460;2024-01-30T05:48:26;100808.75;;;1.22;57.12
85507;BME280;75915;41.988;21.460;2024-01-30T05:50:51;100815.31;;;1.18;57.57
85507;BME280;75915;41.988;21.460;2024-01-30T05:53:17;100814.72;;;1.06;57.88
85507;BME280;75915;41.988;21.460;2024-01-30T05:55:42;100813.19;;;1.03;58.15
85507;BME280;75915;41.988;21.460;2024-01-30T05:58:08;100820.44;;;1.01;58.35
85507;BME280;75915;41.988;21.460;2024-01-30T06:00:34;100829.09;;;0.94;58.87
85507;BME280;75915;41.988;21.460;2024-01-30T06:03:00;100832.75;;;1.11;58.48
85507;BME280;75915;41.988;21.460;2024-01-30T06:05:25;100826.06;;;1.16;58.47
85507;BME280;75915;41.988;21.460;2024-01-30T06:07:51;100826.25;;;1.23;58.57
85507;BME280;75915;41.988;21.460;2024-01-30T06:10:23;100834.94;;;1.15;58.52
85507;BME280;75915;41.988;21.460;2024-01-30T06:12:49;100838.91;;;1.01;59.06
85507;BME280;75915;41.988;21.460;2024-01-30T06:15:15;100843.88;;;0.87;59.52
85507;BME280;75915;41.988;21.460;2024-01-30T06:17:43;100854.97;;;0.62;59.74
85507;BME280;75915;41.988;21.460;2024-01-30T06:20:09;100847.00;;;0.45;60.36
85507;BME280;75915;41.988;21.460;2024-01-30T06:22:35;100854.63;;;0.48;60.44
85507;BME280;75915;41.988;21.460;2024-01-30T06:25:01;100850.06;;;0.68;59.87
85507;BME280;75915;41.988;21.460;2024-01-30T06:27:27;100851.28;;;0.83;59.44
85507;BME280;75915;41.988;21.460;2024-01-30T06:29:52;100843.28;;;0.93;59.11
85507;BME280;75915;41.988;21.460;2024-01-30T06:32:17;100854.16;;;1.08;59.05
85507;BME280;75915;41.988;21.460;2024-01-30T06:34:43;100853.13;;;1.18;58.71
85507;BME280;75915;41.988;21.460;2024-01-30T06:37:09;100854.84;;;1.27;58.60
85507;BME280;75915;41.988;21.460;2024-01-30T06:39:35;100849.81;;;1.34;58.16
85507;BME280;75915;41.988;21.460;2024-01-30T06:42:01;100861.50;;;1.32;58.07
85507;BME280;75915;41.988;21.460;2024-01-30T06:44:27;100860.53;;;1.33;58.02
85507;BME280;75915;41.988;21.460;2024-01-30T06:46:53;100862.56;;;1.39;57.85
85507;BME280;75915;41.988;21.460;2024-01-30T06:49:19;100853.56;;;1.49;57.77
85507;BME280;75915;41.988;21.460;2024-01-30T06:51:44;100862.03;;;1.53;57.73
85507;BME280;75915;41.988;21.460;2024-01-30T06:54:09;100857.00;;;1.60;57.30
85507;BME280;75915;41.988;21.460;2024-01-30T06:56:35;100862.56;;;1.57;57.55
85507;BME280;75915;41.988;21.460;2024-01-30T06:59:01;100859.31;;;1.63;57.37
85507;BME280;75915;41.988;21.460;2024-01-30T07:01:30;100866.09;;;1.65;57.10
85507;BME280;75915;41.988;21.460;2024-01-30T07:03:56;100857.81;;;1.42;57.80
85507;BME280;75915;41.988;21.460;2024-01-30T07:06:22;100854.94;;;1.54;57.70
85507;BME280;75915;41.988;21.460;2024-01-30T07:08:51;100860.75;;;1.75;57.46
85507;BME280;75915;41.988;21.460;2024-01-30T07:11:20;100860.31;;;2.06;56.54
85507;BME280;75915;41.988;21.460;2024-01-30T07:13:52;100859.38;;;2.84;55.66
85507;BME280;75915;41.988;21.460;2024-01-30T07:16:17;100847.06;;;4.07;52.85
85507;BME280;75915;41.988;21.460;2024-01-30T07:18:44;100849.13;;;4.84;50.35
85507;BME280;75915;41.988;21.460;2024-01-30T07:21:10;100845.31;;;4.78;49.31
85507;BME280;75915;41.988;21.460;2024-01-30T07:23:36;100838.25;;;5.02;48.84
85507;BME280;75915;41.988;21.460;2024-01-30T07:26:04;100838.94;;;5.27;48.13
85507;BME280;75915;41.988;21.460;2024-01-30T07:28:31;100838.25;;;6.09;47.36
85507;BME280;75915;41.988;21.460;2024-01-30T07:30:57;100844.09;;;6.93;45.63
85507;BME280;75915;41.988;21.460;2024-01-30T07:33:22;100831.16;;;7.48;43.77
85507;BME280;75915;41.988;21.460;2024-01-30T07:35:49;100838.31;;;7.97;42.62
85507;BME280;75915;41.988;21.460;2024-01-30T07:38:15;100843.31;;;8.07;42.39
85507;BME280;75915;41.988;21.460;2024-01-30T07:40:40;100842.13;;;8.09;41.63
85507;BME280;75915;41.988;21.460;2024-01-30T07:43:06;100839.94;;;8.54;41.58
85507;BME280;75915;41.988;21.460;2024-01-30T07:45:32;100834.47;;;9.44;39.85
85507;BME280;75915;41.988;21.460;2024-01-30T07:48:00;100831.41;;;9.80;37.80
85507;BME280;75915;41.988;21.460;2024-01-30T07:50:27;100830.16;;;9.43;37.50
85507;BME280;75915;41.988;21.460;2024-01-30T07:52:53;100830.81;;;9.72;37.33
85507;BME280;75915;41.988;21.460;2024-01-30T07:55:23;100828.34;;;9.83;37.88
85507;BME280;75915;41.988;21.460;2024-01-30T07:57:57;100829.75;;;9.99;37.43
85507;BME280;75915;41.988;21.460;2024-01-30T08:00:24;100828.13;;;9.72;37.19
85507;BME280;75915;41.988;21.460;2024-01-30T08:02:50;100826.69;;;9.43;38.41
85507;BME280;75915;41.988;21.460;2024-01-30T08:05:15;100828.50;;;9.49;38.01
85507;BME280;75915;41.988;21.460;2024-01-30T08:07:44;100829.34;;;9.36;38.73
85507;BME280;75915;41.988;21.460;2024-01-30T08:10:11;100840.78;;;9.10;38.81
85507;BME280;75915;41.988;21.460;2024-01-30T08:12:38;100829.28;;;9.09;38.65
85507;BME280;75915;41.988;21.460;2024-01-30T08:15:05;100842.38;;;8.91;39.18
85507;BME280;75915;41.988;21.460;2024-01-30T08:17:30;100845.03;;;8.43;39.62
85507;BME280;75915;41.988;21.460;2024-01-30T08:19:56;100847.91;;;7.63;40.92
85507;BME280;75915;41.988;21.460;2024-01-30T08:22:21;100846.19;;;7.77;41.21
85507;BME280;75915;41.988;21.460;2024-01-30T08:24:47;100846.88;;;7.86;41.08
85507;BME280;75915;41.988;21.460;2024-01-30T08:27:12;100841.88;;;7.55;42.21
85507;BME280;75915;41.988;21.460;2024-01-30T08:29:40;100844.34;;;8.34;40.84
85507;BME280;75915;41.988;21.460;2024-01-30T08:32:07;100830.41;;;8.80;39.63
85507;BME280;75915;41.988;21.460;2024-01-30T08:34:33;100828.38;;;8.82;39.23
85507;BME280;75915;41.988;21.460;2024-01-30T08:36:59;100822.81;;;8.77;39.75
85507;BME280;75915;41.988;21.460;2024-01-30T08:39:25;100832.34;;;9.00;39.34
85507;BME280;75915;41.988;21.460;2024-01-30T08:41:51;100829.63;;;8.93;38.66
85507;BME280;75915;41.988;21.460;2024-01-30T08:44:18;100817.94;;;9.07;38.90
85507;BME280;75915;41.988;21.460;2024-01-30T08:47:03;100820.09;;;9.58;37.21
85507;BME280;75915;41.988;21.460;2024-01-30T08:49:29;100818.22;;;9.46;36.63
85507;BME280;75915;41.988;21.460;2024-01-30T08:51:56;100819.69;;;9.55;37.31
85507;BME280;75915;41.988;21.460;2024-01-30T08:54:22;100813.28;;;9.96;36.69
85507;BME280;75915;41.988;21.460;2024-01-30T08:56:53;100811.59;;;10.28;36.58
85507;BME280;75915;41.988;21.460;2024-01-30T08:59:18;100807.22;;;10.54;35.63
85507;BME280;75915;41.988;21.460;2024-01-30T09:01:50;100809.63;;;10.68;36.06
85507;BME280;75915;41.988;21.460;2024-01-30T09:04:18;100817.75;;;10.49;36.50
85507;BME280;75915;41.988;21.460;2024-01-30T09:06:44;100811.94;;;10.58;36.40
85507;BME280;75915;41.988;21.460;2024-01-30T09:09:09;100812.28;;;10.75;35.76
85507;BME280;75915;41.988;21.460;2024-01-30T09:11:35;100810.81;;;10.79;36.19
85507;BME280;75915;41.988;21.460;2024-01-30T09:14:01;100799.00;;;10.87;35.25
85507;BME280;75915;41.988;21.460;2024-01-30T09:16:27;100808.72;;;10.88;35.80
85507;BME280;75915;41.988;21.460;2024-01-30T09:18:52;100796.66;;;11.04;35.46
85507;BME280;75915;41.988;21.460;2024-01-30T09:21:19;100800.81;;;11.00;35.01
85507;BME280;75915;41.988;21.460;2024-01-30T09:23:44;100801.69;;;10.87;34.81
85507;BME280;75915;41.988;21.460;2024-01-30T09:26:11;100802.63;;;11.06;34.99
85507;BME280;75915;41.988;21.460;2024-01-30T09:28:38;100792.47;;;11.15;35.53
85507;BME280;75915;41.988;21.460;2024-01-30T09:31:04;100789.38;;;11.43;34.65
85507;BME280;75915;41.988;21.460;2024-01-30T09:33:30;100785.81;;;11.74;34.43
85507;BME280;75915;41.988;21.460;2024-01-30T09:35:57;100785.56;;;11.82;34.26
85507;BME280;75915;41.988;21.460;2024-01-30T09:38:22;100778.84;;;11.66;36.78
85507;BME280;75915;41.988;21.460;2024-01-30T09:40:54;100785.38;;;11.52;34.28
85507;BME280;75915;41.988;21.460;2024-01-30T09:43:23;100779.66;;;11.48;33.30
85507;BME280;75915;41.988;21.460;2024-01-30T09:45:53;100774.34;;;11.35;32.93
85507;BME280;75915;41.988;21.460;2024-01-30T09:48:21;100777.56;;;11.50;32.80
85507;BME280;75915;41.988;21.460;2024-01-30T09:50:47;100772.47;;;11.67;32.68
85507;BME280;75915;41.988;21.460;2024-01-30T09:53:13;100767.09;;;11.67;31.96
85507;BME280;75915;41.988;21.460;2024-01-30T09:55:42;100760.56;;;11.57;32.08
85507;BME280;75915;41.988;21.460;2024-01-30T09:58:08;100766.06;;;11.43;32.40
85507;BME280;75915;41.988;21.460;2024-01-30T10:00:33;100756.78;;;11.39;32.05
85507;BME280;75915;41.988;21.460;2024-01-30T10:02:59;100761.38;;;11.07;32.51
85507;BME280;75915;41.988;21.460;2024-01-30T10:05:26;100746.72;;;11.03;32.44
85507;BME280;75915;41.988;21.460;2024-01-30T10:07:54;100742.22;;;10.97;32.53
85507;BME280;75915;41.988;21.460;2024-01-30T10:10:39;100742.00;;;10.98;32.24
85507;BME280;75915;41.988;21.460;2024-01-30T10:13:05;100737.84;;;10.71;32.05
85507;BME280;75915;41.988;21.460;2024-01-30T10:15:30;100737.56;;;10.85;32.87
85507;BME280;75915;41.988;21.460;2024-01-30T10:17:56;100730.06;;;10.94;32.81
85507;BME280;75915;41.988;21.460;2024-01-30T10:20:25;100730.94;;;11.20;31.72
85507;BME280;75915;41.988;21.460;2024-01-30T10:22:51;100728.09;;;11.15;31.74
85507;BME280;75915;41.988;21.460;2024-01-30T10:25:17;100711.69;;;11.23;31.55
85507;BME280;75915;41.988;21.460;2024-01-30T10:27:42;100712.75;;;11.22;31.20
85507;BME280;75915;41.988;21.460;2024-01-30T10:30:09;100716.53;;;11.14;32.02
85507;BME280;75915;41.988;21.460;2024-01-30T10:32:35;100712.81;;;11.15;32.04
85507;BME280;75915;41.988;21.460;2024-01-30T10:35:01;100698.03;;;10.99;32.37
85507;BME280;75915;41.988;21.460;2024-01-30T10:37:29;100694.72;;;10.72;32.29
85507;BME280;75915;41.988;21.460;2024-01-30T10:40:03;100696.00;;;10.63;32.34
85507;BME280;75915;41.988;21.460;2024-01-30T10:42:32;100692.47;;;10.69;32.39
85507;BME280;75915;41.988;21.460;2024-01-30T10:45:09;100695.84;;;10.89;32.91
85507;BME280;75915;41.988;21.460;2024-01-30T10:47:40;100678.69;;;10.97;32.04
85507;BME280;75915;41.988;21.460;2024-01-30T10:50:08;100680.75;;;10.95;31.80
85507;BME280;75915;41.988;21.460;2024-01-30T10:52:34;100666.13;;;10.91;31.50
85507;BME280;75915;41.988;21.460;2024-01-30T10:55:00;100672.44;;;11.03;32.20
85507;BME280;75915;41.988;21.460;2024-01-30T10:57:26;100681.41;;;11.16;31.79
85507;BME280;75915;41.988;21.460;2024-01-30T10:59:56;100663.28;;;11.11;31.94
85507;BME280;75915;41.988;21.460;2024-01-30T11:02:23;100656.94;;;11.05;32.15
85507;BME280;75915;41.988;21.460;2024-01-30T11:04:54;100658.09;;;10.91;31.85
85507;BME280;75915;41.988;21.460;2024-01-30T11:07:28;100659.97;;;10.59;31.91
85507;BME280;75915;41.988;21.460;2024-01-30T11:12:30;100655.00;;;10.17;32.25
85507;BME280;75915;41.988;21.460;2024-01-30T11:15:16;100661.19;;;10.11;32.58
85507;BME280;75915;41.988;21.460;2024-01-30T11:17:50;100644.84;;;9.81;33.46
85507;BME280;75915;41.988;21.460;2024-01-30T11:20:25;100644.50;;;9.44;33.54
85507;BME280;75915;41.988;21.460;2024-01-30T11:22:52;100636.72;;;9.36;34.07
85507;BME280;75915;41.988;21.460;2024-01-30T11:25:20;100630.81;;;9.86;34.18
85507;BME280;75915;41.988;21.460;2024-01-30T11:27:47;100632.44;;;9.93;33.74
85507;BME280;75915;41.988;21.460;2024-01-30T11:30:25;100622.59;;;10.25;33.56
85507;BME280;75915;41.988;21.460;2024-01-30T11:35:36;100607.78;;;10.61;32.73
85507;BME280;75915;41.988;21.460;2024-01-30T11:38:13;100609.66;;;10.61;32.67
85507;BME280;75915;41.988;21.460;2024-01-30T11:40:43;100606.41;;;10.52;32.34
85507;BME280;75915;41.988;21.460;2024-01-30T11:43:12;100595.81;;;10.32;32.63
85507;BME280;75915;41.988;21.460;2024-01-30T11:45:38;100605.91;;;10.30;32.76
85507;BME280;75915;41.988;21.460;2024-01-30T11:48:19;100589.34;;;10.46;32.64
85507;BME280;75915;41.988;21.460;2024-01-30T11:50:44;100584.97;;;10.52;32.52
85507;BME280;75915;41.988;21.460;2024-01-30T11:53:10;100596.81;;;10.63;32.97
85507;BME280;75915;41.988;21.460;2024-01-30T11:55:36;100589.03;;;10.61;31.96
85507;BME280;75915;41.988;21.460;2024-01-30T11:58:02;100584.03;;;10.33;32.57
85507;BME280;75915;41.988;21.460;2024-01-30T12:00:29;100576.00;;;10.33;32.31
85507;BME280;75915;41.988;21.460;2024-01-30T12:02:56;100571.69;;;10.32;32.44
85507;BME280;75915;41.988;21.460;2024-01-30T12:05:24;100567.75;;;10.35;32.25
85507;BME280;75915;41.988;21.460;2024-01-30T12:07:50;100571.44;;;10.40;32.51
85507;BME280;75915;41.988;21.460;2024-01-30T12:10:16;100564.56;;;10.51;32.41
85507;BME280;75915;41.988;21.460;2024-01-30T12:12:45;100562.06;;;10.56;32.00
85507;BME280;75915;41.988;21.460;2024-01-30T12:15:11;100553.16;;;10.56;32.31
85507;BME280;75915;41.988;21.460;2024-01-30T12:17:37;100555.16;;;10.42;31.66
85507;BME280;75915;41.988;21.460;2024-01-30T12:22:33;100546.66;;;10.45;32.30
85507;BME280;75915;41.988;21.460;2024-01-30T12:25:05;100542.59;;;10.36;31.96
85507;BME280;75915;41.988;21.460;2024-01-30T12:27:30;100535.81;;;10.33;32.26
85507;BME280;75915;41.988;21.460;2024-01-30T12:29:57;100538.34;;;10.28;31.76
85507;BME280;75915;41.988;21.460;2024-01-30T12:32:24;100534.50;;;10.11;32.30
85507;BME280;75915;41.988;21.460;2024-01-30T12:34:54;100541.00;;;9.90;32.29
85507;BME280;75915;41.988;21.460;2024-01-30T12:37:21;100543.94;;;9.81;32.50
85507;BME280;75915;41.988;21.460;2024-01-30T12:39:51;100528.03;;;9.87;32.54
85507;BME280;75915;41.988;21.460;2024-01-30T12:42:19;100531.88;;;9.97;32.45
85507;BME280;75915;41.988;21.460;2024-01-30T12:44:48;100530.59;;;10.07;32.71
85507;BME280;75915;41.988;21.460;2024-01-30T12:47:25;100532.06;;;10.02;32.36
85507;BME280;75915;41.988;21.460;2024-01-30T12:49:51;100529.97;;;10.11;33.13
85507;BME280;75915;41.988;21.460;2024-01-30T12:52:21;100527.06;;;10.13;32.22
85507;BME280;75915;41.988;21.460;2024-01-30T12:54:48;100524.22;;;10.08;32.96